Time;durP1;ratioP1;P1;durP2;ratioP2;P2;SDS_P1;SDS_P2;PMS_P1;PMS_P2;Temp;Humidity;BMP_temperature;BMP_pressure;BME280_temperature;BME280_humidity;BME280_pressure;Samples;Min_cycle;Max_cycle;Signal;HPM_P1;HPM_P2
2021/01/03 00:01:02;;;;;;;8.13;5.03;;;;;;;6.73;100.00;102067.76;1827277;77;21043;-61
2021/01/03 00:03:29;;;;;;;9.75;5.05;;;;;;;6.70;100.00;102062.00;1827404;78;20933;-60
2021/01/03 00:05:57;;;;;;;11.30;5.17;;;;;;;6.70;100.00;102059.76;1827290;78;21099;-60
2021/01/03 00:08:24;;;;;;;9.65;4.92;;;;;;;6.69;100.00;102068.64;1827409;77;21362;-60
2021/01/03 00:10:51;;;;;;;10.13;4.90;;;;;;;6.69;100.00;102068.64;1827238;78;21051;-60
2021/01/03 00:13:19;;;;;;;9.45;4.70;;;;;;;6.71;100.00;102072.20;1827402;77;20927;-60
2021/01/03 00:15:47;;;;;;;11.43;5.17;;;;;;;6.71;100.00;102070.44;1827265;78;21133;-60
2021/01/03 00:18:14;;;;;;;10.30;5.37;;;;;;;6.73;100.00;102080.66;1827412;78;21130;-61
2021/01/03 00:20:42;;;;;;;11.33;5.17;;;;;;;6.72;100.00;102073.98;1827281;78;21314;-61
2021/01/03 00:23:10;;;;;;;7.33;4.12;;;;;;;6.70;100.00;102071.33;1827349;77;21051;-60
2021/01/03 00:25:38;;;;;;;12.82;4.92;;;;;;;6.69;100.00;102069.55;1827307;78;21122;-60
2021/01/03 00:28:05;;;;;;;9.75;4.60;;;;;;;6.69;100.00;102069.55;1827333;78;21142;-61
2021/01/03 00:30:33;;;;;;;7.60;4.83;;;;;;;6.69;100.00;102070.88;1827417;77;21032;-61
2021/01/03 00:33:00;;;;;;;10.18;5.05;;;;;;;6.69;100.00;102070.88;1827258;77;21379;-61
2021/01/03 00:35:31;;;;;;;12.15;5.05;;;;;;;6.66;100.00;102064.64;1827203;78;21121;-61
2021/01/03 00:38:04;;;;;;;8.70;4.75;;;;;;;6.66;100.00;102073.97;1836528;78;21010;-62
2021/01/03 00:40:32;;;;;;;8.03;3.87;;;;;;;6.66;100.00;102073.97;1840262;78;21089;-60
2021/01/03 00:43:00;;;;;;;10.45;3.87;;;;;;;6.68;100.00;102077.53;1840215;78;21088;-60
2021/01/03 00:45:27;;;;;;;10.80;4.50;;;;;;;6.66;100.00;102072.21;1840267;78;21357;-60
2021/01/03 00:47:57;;;;;;;10.53;4.22;;;;;;;6.68;100.00;102075.77;1840070;78;21167;-60
2021/01/03 00:50:25;;;;;;;7.90;4.33;;;;;;;6.70;100.00;102082.41;1840222;78;21156;-61
2021/01/03 00:52:52;;;;;;;13.32;4.35;;;;;;;6.68;100.00;102077.09;1840174;78;21037;-61
2021/01/03 00:55:20;;;;;;;9.20;4.33;;;;;;;6.67;100.00;102086.41;1840314;78;21068;-60
2021/01/03 00:57:47;;;;;;;8.08;3.80;;;;;;;6.66;100.00;102080.20;1840406;78;21257;-61
2021/01/03 01:00:23;;;;;;;10.60;4.00;;;;;;;6.68;100.00;102089.52;1840307;78;21107;-61
2021/01/03 01:02:51;;;;;;;8.88;3.87;;;;;;;6.68;100.00;102089.52;1840402;78;20882;-61
2021/01/03 01:05:18;;;;;;;7.30;3.27;;;;;;;6.69;100.00;102085.97;1840315;78;21119;-61
2021/01/03 01:07:46;;;;;;;9.13;4.05;;;;;;;6.72;100.00;102088.21;1840467;78;20992;-61
2021/01/03 01:10:19;;;;;;;9.15;3.90;;;;;;;6.75;100.00;102086.01;1840547;78;23097;-60
2021/01/03 01:12:50;;;;;;;10.50;4.10;;;;;;;6.77;100.00;102077.57;1840302;78;21140;-60
2021/01/03 01:15:18;;;;;;;9.83;4.12;;;;;;;6.79;100.00;102069.55;1839913;78;21155;-59
2021/01/03 01:17:52;;;;;;;10.40;4.03;;;;;;;6.81;100.00;102065.11;1840314;78;21096;-61
2021/01/03 01:20:25;;;;;;;10.15;4.17;;;;;;;6.83;100.00;102072.24;1840477;78;21452;-60
2021/01/03 01:22:56;;;;;;;10.15;4.80;;;;;;;6.83;100.00;102065.58;1840434;78;21181;-60
2021/01/03 01:25:28;;;;;;;10.32;4.42;;;;;;;6.85;100.00;102065.56;1840357;78;21057;-59
2021/01/03 01:27:57;;;;;;;8.40;4.22;;;;;;;6.84;100.00;102062.45;1840187;78;21124;-60
2021/01/03 01:30:26;;;;;;;8.88;4.80;;;;;;;6.84;100.00;102068.69;1840356;78;21140;-60
2021/01/03 01:32:54;;;;;;;15.53;5.85;;;;;;;6.83;100.00;102069.57;1840360;78;21057;-61
2021/01/03 01:35:26;;;;;;;10.25;5.58;;;;;;;6.82;100.00;102070.47;1840284;77;21191;-60
2021/01/03 01:37:53;;;;;;;13.13;4.45;;;;;;;6.78;100.00;102063.35;1831559;78;22264;-60
2021/01/03 01:40:25;;;;;;;8.83;4.60;;;;;;;6.73;100.00;102062.43;1827580;78;21157;-60
2021/01/03 01:42:53;;;;;;;11.05;4.67;;;;;;;6.70;100.00;102065.09;1827466;78;21051;-61
2021/01/03 01:45:25;;;;;;;8.70;4.35;;;;;;;6.68;100.00;102061.11;1827480;78;21143;-60
2021/01/03 01:47:56;;;;;;;7.47;4.30;;;;;;;6.68;100.00;102066.87;1827475;78;21296;-60
2021/01/03 01:50:32;;;;;;;12.00;4.80;;;;;;;6.68;100.00;102064.20;1827386;78;20908;-61
2021/01/03 01:52:59;;;;;;;9.53;4.65;;;;;;;6.67;100.00;102061.09;1827340;78;20952;-61
2021/01/03 01:55:35;;;;;;;7.90;4.78;;;;;;;6.64;100.00;102063.75;1827370;78;21138;-59
2021/01/03 01:58:27;;;;;;;9.43;4.37;;;;;;;6.64;100.00;102063.75;1827530;78;21148;-60
2021/01/03 02:00:59;;;;;;;7.83;4.45;;;;;;;6.64;100.00;102050.42;1827508;78;21369;-60
2021/01/03 02:03:38;;;;;;;8.28;4.53;;;;;;;6.67;100.00;102047.77;1809283;78;21149;-60
2021/01/03 02:06:17;;;;;;;9.68;4.30;;;;;;;6.69;100.00;102043.32;1827474;78;21007;-60
2021/01/03 02:08:54;;;;;;;7.90;4.03;;;;;;;6.74;100.00;102049.55;1827506;78;21569;-60
2021/01/03 02:11:24;;;;;;;9.38;5.17;;;;;;;6.74;100.00;102049.55;1827562;77;21054;-61
2021/01/03 02:13:55;;;;;;;12.95;5.62;;;;;;;6.80;100.00;102044.67;1827471;78;21301;-61
2021/01/03 02:16:25;;;;;;;7.87;5.20;;;;;;;6.83;100.00;102041.58;1827436;78;21466;-60
2021/01/03 02:18:52;;;;;;;12.07;5.12;;;;;;;6.85;100.00;102029.56;1827395;78;20999;-61
2021/01/03 02:21:58;;;;;;;10.15;4.92;;;;;;;6.86;100.00;102026.91;1809388;78;21122;-60
2021/01/03 02:24:46;;;;;;;13.15;5.67;;;;;;;6.86;100.00;102026.91;1827523;78;21138;-60
2021/01/03 02:27:43;;;;;;;10.80;5.33;;;;;;;6.86;100.00;102029.58;1809196;78;21293;-61
2021/01/03 02:30:13;;;;;;;13.68;6.42;;;;;;;6.86;100.00;102037.58;1827430;78;21050;-61
2021/01/03 02:32:43;;;;;;;12.43;5.90;;;;;;;6.85;100.00;102040.23;1809322;78;21054;-60
2021/01/03 02:35:12;;;;;;;11.97;6.25;;;;;;;6.83;100.00;102034.91;1827522;78;21483;-61
2021/01/03 02:37:44;;;;;;;12.80;5.78;;;;;;;6.86;100.00;102040.25;1841109;77;21052;-60
2021/01/03 02:40:23;;;;;;;11.68;4.87;;;;;;;6.88;100.00;102035.80;1849259;77;21186;-60
2021/01/03 02:42:51;;;;;;;10.03;5.47;;;;;;;6.96;100.00;102031.81;1849207;77;21067;-60
2021/01/03 02:45:23;;;;;;;11.22;5.75;;;;;;;6.96;100.00;102031.81;1849135;77;21139;-60
2021/01/03 02:47:51;;;;;;;11.12;5.33;;;;;;;7.00;100.00;102035.38;1849187;77;20925;-61
2021/01/03 02:50:24;;;;;;;12.53;5.87;;;;;;;7.02;100.00;102034.48;1849057;77;21072;-60
2021/01/03 02:52:52;;;;;;;18.17;6.12;;;;;;;7.03;100.00;102035.38;1849243;77;21366;-60
2021/01/03 02:55:19;;;;;;;35.73;5.95;;;;;;;7.02;100.00;102032.27;1849032;77;21112;-60
2021/01/03 02:57:47;;;;;;;15.95;4.17;;;;;;;7.00;100.00;102036.72;1849132;77;21092;-60
2021/01/03 03:00:28;;;;;;;10.60;3.30;;;;;;;6.96;100.00;102036.24;1849098;77;21032;-60
2021/01/03 03:02:56;;;;;;;13.35;2.60;;;;;;;6.84;100.00;102028.70;1849246;77;21061;-61
2021/01/03 03:05:24;;;;;;;11.55;2.75;;;;;;;6.72;100.00;102032.23;1849180;77;21364;-60
2021/01/03 03:07:52;;;;;;;16.48;2.90;;;;;;;6.65;100.00;102032.22;1849052;77;21104;-60
2021/01/03 03:10:20;;;;;;;16.23;2.80;;;;;;;6.54;100.00;102030.43;1849174;77;21104;-59
2021/01/03 03:12:52;;;;;;;6.70;3.12;;;;;;;6.54;100.00;102030.43;1849006;77;21547;-60
2021/01/03 03:15:21;;;;;;;9.43;3.30;;;;;;;6.42;100.00;102027.72;1849177;77;21084;-59
2021/01/03 03:17:49;;;;;;;5.35;3.40;;;;;;;6.42;100.00;102027.72;1849155;77;22077;-59
2021/01/03 03:20:17;;;;;;;7.37;4.00;;;;;;;6.39;100.00;102031.71;1849129;77;21127;-61
2021/01/03 03:22:45;;;;;;;5.72;3.60;;;;;;;6.40;100.00;102021.50;1849087;77;21170;-60
2021/01/03 03:25:14;;;;;;;10.78;3.90;;;;;;;6.40;100.00;102021.50;1849187;77;21508;-61
2021/01/03 03:27:41;;;;;;;6.17;3.98;;;;;;;6.45;100.00;102017.06;1849120;77;21028;-61
2021/01/03 03:30:11;;;;;;;6.50;4.22;;;;;;;6.45;100.00;102017.06;1849107;77;21364;-60
2021/01/03 03:32:39;;;;;;;7.60;4.55;;;;;;;6.48;100.00;102017.06;1849109;77;21024;-60
2021/01/03 03:35:11;;;;;;;8.93;4.70;;;;;;;6.48;100.00;102006.41;1849085;77;20993;-59
2021/01/03 03:37:39;;;;;;;9.40;5.30;;;;;;;6.50;100.00;102014.42;1835474;77;21113;-60
2021/01/03 03:40:09;;;;;;;11.10;5.80;;;;;;;6.51;100.00;102009.53;1830262;77;21082;-60
2021/01/03 03:42:36;;;;;;;10.75;5.37;;;;;;;6.53;100.00;102010.00;1830344;77;21185;-60
2021/01/03 03:45:06;;;;;;;10.32;6.08;;;;;;;6.59;100.00;102007.34;1830171;78;21051;-60
2021/01/03 03:47:33;;;;;;;9.83;6.30;;;;;;;6.64;100.00;102005.12;1830317;78;21051;-59
2021/01/03 03:50:01;;;;;;;13.15;6.62;;;;;;;6.67;100.00;102002.03;1830243;77;21039;-61
2021/01/03 03:52:29;;;;;;;13.10;6.90;;;;;;;6.67;100.00;102002.03;1830285;77;21102;-60
2021/01/03 03:54:56;;;;;;;10.68;6.53;;;;;;;6.72;100.00;102002.01;1830286;78;21379;-61
2021/01/03 03:57:24;;;;;;;12.20;6.65;;;;;;;6.80;100.00;102011.35;1830194;77;21526;-60
2021/01/03 03:59:51;;;;;;;12.35;6.65;;;;;;;6.84;100.00;102015.36;1830317;78;20943;-61
2021/01/03 04:02:19;;;;;;;12.85;6.10;;;;;;;6.88;100.00;102019.80;1830219;78;21183;-60
2021/01/03 04:04:46;;;;;;;15.63;7.05;;;;;;;6.95;100.00;102022.47;1830316;78;21129;-61
2021/01/03 04:07:14;;;;;;;10.90;6.80;;;;;;;7.02;100.00;102016.27;1830265;78;21371;-60
2021/01/03 04:09:41;;;;;;;12.10;6.72;;;;;;;7.02;100.00;102016.27;1830289;78;21058;-60
2021/01/03 04:12:10;;;;;;;15.53;6.97;;;;;;;7.03;100.00;102022.92;1830232;77;21117;-60
2021/01/03 04:14:37;;;;;;;14.55;6.87;;;;;;;7.03;100.00;102022.92;1830278;78;21102;-59
2021/01/03 04:17:05;;;;;;;14.20;6.58;;;;;;;7.03;100.00;102029.59;1830242;78;21133;-60
2021/01/03 04:19:32;;;;;;;13.15;7.62;;;;;;;7.02;100.00;102025.60;1830308;77;21371;-60
2021/01/03 04:22:02;;;;;;;12.73;6.55;;;;;;;7.01;100.00;102027.83;1830151;78;21038;-61
2021/01/03 04:24:30;;;;;;;12.43;6.30;;;;;;;6.98;100.00;102023.83;1830316;77;21130;-61
2021/01/03 04:27:01;;;;;;;11.97;6.40;;;;;;;6.95;100.00;102026.47;1830325;78;21118;-60
2021/01/03 04:29:28;;;;;;;15.30;5.40;;;;;;;6.93;100.00;102032.25;1830319;78;21511;-60
2021/01/03 04:32:00;;;;;;;17.00;5.17;;;;;;;6.90;100.00;102034.48;1830232;78;21343;-60
2021/01/03 04:34:27;;;;;;;14.00;6.53;;;;;;;6.93;100.00;102032.25;1830147;78;21121;-60
2021/01/03 04:36:56;;;;;;;11.63;5.40;;;;;;;6.93;100.00;102029.58;1832851;78;21187;-60
2021/01/03 04:39:25;;;;;;;19.60;6.28;;;;;;;6.94;100.00;102030.02;1840139;78;20902;-59
2021/01/03 04:42:08;;;;;;;15.95;5.85;;;;;;;6.92;100.00;102035.80;1840259;78;21470;-61
2021/01/03 04:44:40;;;;;;;12.58;5.55;;;;;;;6.90;100.00;102029.58;1840240;78;20989;-61
2021/01/03 04:47:23;;;;;;;9.80;5.90;;;;;;;6.87;100.00;102039.36;1840249;78;21095;-59
2021/01/03 04:50:08;;;;;;;11.33;5.65;;;;;;;6.83;100.00;102034.02;1840262;78;21056;-60
2021/01/03 04:52:57;;;;;;;;;;;;;;;6.82;100.00;102030.47;1830336;78;21147;-60
2021/01/03 04:55:27;;;;;;;13.62;5.90;;;;;;;6.79;100.00;102043.80;1840292;78;20277;-61
2021/01/03 04:58:15;;;;;;;10.50;5.30;;;;;;;6.72;100.00;102037.99;1840184;78;21333;-61
2021/01/03 05:01:14;;;;;;;11.12;6.35;;;;;;;6.68;100.00;102038.88;1804455;78;21068;-61
2021/01/03 05:04:22;;;;;;;12.07;6.75;;;;;;;6.61;100.00;102043.76;1840295;78;21151;-60
2021/01/03 05:06:51;;;;;;;12.23;7.25;;;;;;;6.53;100.00;102035.74;1840233;78;21039;-61
2021/01/03 05:09:18;;;;;;;12.70;7.00;;;;;;;6.48;100.00;102045.05;1840288;78;21152;-61
2021/01/03 05:12:06;;;;;;;10.23;6.10;;;;;;;6.49;100.00;102049.95;1840226;78;21357;-59
2021/01/03 05:14:44;;;;;;;17.90;6.90;;;;;;;6.44;100.00;102039.27;1840086;78;21140;-59
2021/01/03 05:17:11;;;;;;;10.25;5.95;;;;;;;6.40;100.00;102041.02;1840243;78;21053;-60
2021/01/03 05:19:39;;;;;;;9.30;5.60;;;;;;;6.41;100.00;102044.59;1840151;78;21155;-60
2021/01/03 05:22:06;;;;;;;13.50;6.58;;;;;;;6.39;100.00;102037.04;1840243;78;21076;-60
2021/01/03 05:24:44;;;;;;;12.28;6.15;;;;;;;6.38;100.00;102034.80;1840244;78;22260;-59
2021/01/03 05:27:19;;;;;;;12.37;6.58;;;;;;;6.37;100.00;102037.02;1840211;78;21088;-61
2021/01/03 05:29:47;;;;;;;13.95;6.15;;;;;;;6.37;100.00;102037.02;1840349;78;21002;-61
2021/01/03 05:32:33;;;;;;;13.93;6.05;;;;;;;6.36;100.00;102039.23;1840251;78;21044;-62
2021/01/03 05:35:00;;;;;;;16.30;6.87;;;;;;;6.34;100.00;102035.69;1840167;78;21056;-60
2021/01/03 05:37:30;;;;;;;12.60;6.10;;;;;;;6.32;100.00;102046.78;1834853;78;21493;-61
2021/01/03 05:39:57;;;;;;;15.03;6.85;;;;;;;6.32;100.00;102046.78;1830444;78;21541;-60
2021/01/03 05:42:34;;;;;;;16.82;7.55;;;;;;;6.30;100.00;102040.13;1830632;78;21157;-60
2021/01/03 05:45:14;;;;;;;14.90;7.08;;;;;;;6.30;100.00;102053.87;1830487;77;21153;-60
2021/01/03 05:48:01;;;;;;;14.60;6.75;;;;;;;6.30;100.00;102052.12;1828707;77;21051;-60
2021/01/03 05:50:36;;;;;;;18.25;6.17;;;;;;;6.32;100.00;102053.90;1830726;78;21360;-60
2021/01/03 05:53:25;;;;;;;14.73;6.28;;;;;;;6.32;100.00;102048.11;1830599;78;21106;-60
2021/01/03 05:56:00;;;;;;;18.62;6.08;;;;;;;6.32;100.00;102048.11;1830617;77;21098;-59
2021/01/03 05:58:42;;;;;;;14.35;6.08;;;;;;;6.37;100.00;102053.47;1830701;78;21090;-60
2021/01/03 06:01:24;;;;;;;13.68;6.25;;;;;;;6.39;100.00;102049.03;1830378;77;21106;-60
2021/01/03 06:04:15;;;;;;;12.85;5.83;;;;;;;6.41;100.00;102050.83;1830674;77;21086;-60
2021/01/03 06:06:51;;;;;;;11.55;5.92;;;;;;;6.41;100.00;102049.92;1825629;77;21106;-59
2021/01/03 06:09:22;;;;;;;14.07;5.92;;;;;;;6.41;100.00;102049.92;1811599;77;21003;-60
2021/01/03 06:12:06;;;;;;;10.63;5.50;;;;;;;6.40;100.00;102053.47;1830698;78;20940;-59
2021/01/03 06:14:35;;;;;;;17.37;5.60;;;;;;;6.44;100.00;102052.59;1830653;78;21051;-60
2021/01/03 06:17:35;;;;;;;14.73;5.83;;;;;;;6.44;100.00;102052.59;1830653;78;21306;-61
2021/01/03 06:20:23;;;;;;;14.00;5.40;;;;;;;6.49;100.00;102053.48;1830569;77;21138;-62
2021/01/03 06:22:52;;;;;;;16.45;5.12;;;;;;;6.51;100.00;102053.50;1830678;78;21094;-59
2021/01/03 06:25:55;;;;;;;14.25;5.70;;;;;;;6.52;100.00;102061.52;1830590;78;21499;-60
2021/01/03 06:28:41;;;;;;;13.08;5.75;;;;;;;6.52;100.00;102061.52;1830685;78;21150;-60
2021/01/03 06:31:46;;;;;;;11.93;5.37;;;;;;;6.51;100.00;102054.38;1830663;77;21429;-60
2021/01/03 06:34:29;;;;;;;11.33;5.50;;;;;;;6.52;100.00;102054.86;1830579;78;21055;-61
2021/01/03 06:37:08;;;;;;;9.40;4.70;;;;;;;6.50;100.00;102045.94;1831227;78;21195;-60
2021/01/03 06:39:56;;;;;;;14.38;5.35;;;;;;;6.54;100.00;102050.84;1824305;78;21158;-60
2021/01/03 06:42:44;;;;;;;12.07;5.67;;;;;;;6.55;100.00;102053.53;1824318;78;21039;-61
2021/01/03 06:45:55;;;;;;;12.85;5.25;;;;;;;6.57;100.00;102052.18;1824345;78;21195;-60
2021/01/03 06:49:10;;;;;;;13.83;5.25;;;;;;;6.60;100.00;102058.84;1824259;78;20964;-60
2021/01/03 06:51:58;;;;;;;12.63;5.35;;;;;;;6.64;100.00;102059.75;1824269;78;20968;-60
2021/01/03 06:54:55;;;;;;;16.17;5.58;;;;;;;6.65;100.00;102043.78;1821664;78;21162;-60
2021/01/03 06:58:10;;;;;;;10.32;5.58;;;;;;;6.66;100.00;102047.32;1824260;78;21042;-61
2021/01/03 07:00:55;;;;;;;10.60;5.12;;;;;;;6.68;100.00;102048.20;1824186;78;21358;-62
2021/01/03 07:03:32;;;;;;;11.20;5.00;;;;;;;6.70;100.00;102066.42;1873099;76;22737;-60
2021/01/03 07:06:05;;;;;;;10.35;4.62;;;;;;;6.67;100.00;102049.09;1841046;77;21033;-62
2021/01/03 07:08:40;;;;;;;10.75;4.90;;;;;;;6.69;100.00;102053.55;1840991;78;21343;-60
2021/01/03 07:11:48;;;;;;;12.15;4.67;;;;;;;6.69;100.00;102058.89;1840722;77;21008;-61
2021/01/03 07:14:28;;;;;;;10.82;4.95;;;;;;;6.70;100.00;102052.67;1840978;78;21017;-61
2021/01/03 07:16:59;;;;;;;9.60;4.75;;;;;;;6.72;100.00;102063.31;1841066;78;21080;-60
2021/01/03 07:19:51;;;;;;;10.45;5.10;;;;;;;6.73;100.00;102058.43;1841150;78;21436;-61
2021/01/03 07:22:26;;;;;;;11.68;5.12;;;;;;;6.74;100.00;102062.45;1841016;78;21347;-59
2021/01/03 07:25:01;;;;;;;9.60;5.12;;;;;;;6.74;100.00;102062.45;1838255;78;21020;-60
2021/01/03 07:27:38;;;;;;;12.88;5.78;;;;;;;6.75;100.00;102058.02;1841033;78;20925;-61
2021/01/03 07:30:11;;;;;;;16.80;5.75;;;;;;;6.74;100.00;102076.20;1841026;78;21543;-61
2021/01/03 07:32:53;;;;;;;11.85;4.90;;;;;;;6.75;100.00;102066.02;1840987;78;21068;-61
2021/01/03 07:35:28;;;;;;;16.30;5.65;;;;;;;6.74;100.00;102075.77;1840999;78;21518;-60
2021/01/03 07:38:14;;;;;;;13.90;4.70;;;;;;;6.73;100.00;102074.42;1831827;78;21106;-61
2021/01/03 07:41:07;;;;;;;14.90;4.90;;;;;;;6.82;100.00;102070.47;1873135;76;22718;-61
2021/01/03 07:43:59;;;;;;;13.93;5.40;;;;;;;6.80;100.00;102069.57;1841056;78;20985;-61
2021/01/03 07:46:49;;;;;;;10.68;4.25;;;;;;;6.83;100.00;102068.24;1841033;78;21522;-61
2021/01/03 07:49:41;;;;;;;13.72;4.47;;;;;;;6.83;100.00;102068.24;1840935;78;20989;-61
2021/01/03 07:52:24;;;;;;;10.60;4.35;;;;;;;6.85;100.00;102069.55;1841190;77;20922;-61
2021/01/03 07:54:55;;;;;;;7.28;3.42;;;;;;;6.87;100.00;102070.48;1841041;78;20974;-61
2021/01/03 07:57:28;;;;;;;11.75;4.30;;;;;;;6.90;100.00;102069.58;1841017;78;21083;-61
2021/01/03 07:59:56;;;;;;;10.53;4.03;;;;;;;6.91;100.00;102072.69;1841014;78;21190;-61
2021/01/03 08:02:30;;;;;;;11.03;4.62;;;;;;;6.93;100.00;102076.23;1841089;78;21568;-61
2021/01/03 08:05:00;;;;;;;13.10;4.10;;;;;;;6.94;100.00;102078.02;1812109;78;21010;-61
2021/01/03 08:07:28;;;;;;;9.85;3.92;;;;;;;6.98;100.00;102070.03;1841029;78;21571;-61
2021/01/03 08:09:56;;;;;;;10.53;4.50;;;;;;;7.04;100.00;102067.83;1841080;78;21104;-61
2021/01/03 08:12:37;;;;;;;11.38;5.22;;;;;;;7.00;100.00;102065.59;1811015;78;21537;-61
2021/01/03 08:15:25;;;;;;;13.13;4.80;;;;;;;7.00;100.00;102065.59;1813019;78;21190;-60
2021/01/03 08:17:54;;;;;;;7.92;4.45;;;;;;;6.99;100.00;102074.94;1841039;77;21116;-61
2021/01/03 08:20:25;;;;;;;9.18;4.05;;;;;;;6.98;100.00;102067.83;1811135;78;21124;-60
2021/01/03 08:22:53;;;;;;;12.45;4.08;;;;;;;6.95;100.00;102074.03;1840982;78;21005;-61
2021/01/03 08:25:25;;;;;;;10.38;4.70;;;;;;;6.95;100.00;102075.80;1841020;78;21329;-60
2021/01/03 08:28:18;;;;;;;13.60;4.37;;;;;;;6.95;100.00;102071.80;1840842;78;21127;-60
2021/01/03 08:30:46;;;;;;;6.95;3.65;;;;;;;6.95;100.00;102076.70;1841079;78;21061;-61
2021/01/03 08:33:23;;;;;;;8.53;3.70;;;;;;;6.95;100.00;102078.46;1811022;78;21132;-60
2021/01/03 08:35:52;;;;;;;7.33;3.98;;;;;;;6.87;100.00;102074.02;1841026;78;21528;-61
2021/01/03 08:38:27;;;;;;;8.05;3.47;;;;;;;6.87;100.00;102071.36;1829830;78;21603;-60
2021/01/03 08:41:04;;;;;;;7.87;3.12;;;;;;;6.84;100.00;102064.69;1827932;77;21171;-61
2021/01/03 08:43:31;;;;;;;6.08;2.75;;;;;;;6.82;100.00;102079.80;1809894;78;21172;-61
2021/01/03 08:46:04;;;;;;;6.10;3.33;;;;;;;6.76;100.00;102075.80;1827990;78;20987;-61
2021/01/03 08:48:31;;;;;;;8.80;3.50;;;;;;;6.76;100.00;102075.80;1828097;78;21609;-62
2021/01/03 08:51:12;;;;;;;6.33;3.30;;;;;;;6.73;100.00;102073.09;1827757;78;21307;-60
2021/01/03 08:53:40;;;;;;;10.00;3.75;;;;;;;6.72;100.00;102076.22;1827392;78;21149;-61
2021/01/03 08:56:20;;;;;;;9.48;3.05;;;;;;;6.76;100.00;102083.78;1827596;78;20967;-61
2021/01/03 08:58:48;;;;;;;6.95;3.47;;;;;;;6.80;100.00;102080.23;1827525;78;21459;-61
2021/01/03 09:01:31;;;;;;;8.60;3.45;;;;;;;6.82;100.00;102085.55;1827534;78;21086;-61
2021/01/03 09:04:07;;;;;;;9.30;3.72;;;;;;;6.80;100.00;102077.57;1827437;78;21355;-60
2021/01/03 09:06:34;;;;;;;9.90;3.65;;;;;;;6.79;100.00;102083.79;1827616;78;21519;-62
2021/01/03 09:09:18;;;;;;;6.92;3.40;;;;;;;6.76;100.00;102085.13;1827566;78;21170;-61
2021/01/03 09:12:05;;;;;;;6.90;3.42;;;;;;;6.69;100.00;102079.30;1827396;78;20940;-61
2021/01/03 09:14:38;;;;;;;7.22;3.65;;;;;;;6.69;100.00;102079.30;1827564;78;21102;-61
2021/01/03 09:17:14;;;;;;;8.03;3.65;;;;;;;6.65;100.00;102083.76;1822282;78;22800;-61
2021/01/03 09:20:07;;;;;;;10.43;3.20;;;;;;;6.65;100.00;102078.43;1827312;78;21162;-62
2021/01/03 09:22:41;;;;;;;5.80;3.22;;;;;;;6.65;100.00;102079.77;1827025;78;21134;-60
2021/01/03 09:25:20;;;;;;;6.05;3.02;;;;;;;6.58;100.00;102076.61;1827673;78;21007;-61
2021/01/03 09:27:54;;;;;;;10.08;3.80;;;;;;;6.52;100.00;102088.16;1827499;78;20928;-60
2021/01/03 09:30:35;;;;;;;9.95;4.28;;;;;;;6.50;100.00;102071.25;1827424;78;21338;-61
2021/01/03 09:33:11;;;;;;;10.03;4.17;;;;;;;6.50;100.00;102071.25;1827475;78;20976;-61
2021/01/03 09:36:07;;;;;;;11.05;5.40;;;;;;;6.51;100.00;102069.03;1827459;77;21019;-61
2021/01/03 09:38:43;;;;;;;10.08;4.42;;;;;;;6.51;100.00;102064.16;1797321;79;21112;-61
2021/01/03 09:41:34;;;;;;;9.08;4.58;;;;;;;6.44;100.00;102053.92;1807272;79;21572;-61
2021/01/03 09:44:28;;;;;;;7.45;3.85;;;;;;;6.40;100.00;102048.14;1807280;79;21330;-60
2021/01/03 09:47:05;;;;;;;11.57;4.20;;;;;;;6.40;100.00;102048.14;1806522;79;21160;-61
2021/01/03 09:49:47;;;;;;;7.80;4.50;;;;;;;6.39;100.00;102049.03;1807256;79;20985;-60
2021/01/03 09:52:43;;;;;;;13.83;4.12;;;;;;;6.36;100.00;102035.70;1807250;79;21113;-61
2021/01/03 09:55:20;;;;;;;5.22;4.03;;;;;;;6.32;100.00;102036.58;1807410;79;21037;-60
2021/01/03 09:58:06;;;;;;;10.00;4.35;;;;;;;6.23;100.00;102035.64;1807281;79;21188;-60
2021/01/03 10:00:48;;;;;;;9.30;4.47;;;;;;;6.15;100.00;102040.06;1807223;79;21152;-60
2021/01/03 10:03:38;;;;;;;6.70;3.95;;;;;;;6.08;100.00;102028.48;1807281;79;21144;-61
2021/01/03 10:06:34;;;;;;;6.67;3.50;;;;;;;6.08;100.00;102024.92;1807297;79;21148;-60
2021/01/03 10:09:19;;;;;;;5.53;3.35;;;;;;;6.02;100.00;102040.45;1807450;79;21001;-61
2021/01/03 10:11:47;;;;;;;6.50;3.60;;;;;;;5.91;100.00;102024.39;1805715;79;21681;-61
2021/01/03 10:14:28;;;;;;;8.05;3.85;;;;;;;5.84;100.00;102006.59;1807203;79;21012;-60
2021/01/03 10:16:55;;;;;;;8.18;2.90;;;;;;;5.79;100.00;102015.91;1807448;79;22253;-61
2021/01/03 10:19:23;;;;;;;7.97;3.75;;;;;;;5.73;100.00;101996.80;1807353;79;21045;-61
2021/01/03 10:21:51;;;;;;;6.40;3.42;;;;;;;5.67;100.00;101995.44;1807384;79;21128;-62
2021/01/03 10:24:23;;;;;;;7.37;3.50;;;;;;;5.69;100.00;101991.44;1807285;79;21742;-61
2021/01/03 10:27:12;;;;;;;8.73;2.75;;;;;;;5.68;100.00;101998.55;1807334;79;21465;-62
2021/01/03 10:29:38;;;;;;;6.80;3.10;;;;;;;5.67;100.00;101983.47;1807156;79;20970;-60
2021/01/03 10:32:06;;;;;;;8.63;3.05;;;;;;;5.67;100.00;101983.47;1807355;79;20934;-61
2021/01/03 10:34:33;;;;;;;6.28;3.00;;;;;;;5.72;100.00;101980.38;1807218;79;21144;-60
2021/01/03 10:37:01;;;;;;;9.43;3.00;;;;;;;5.73;100.00;101976.84;1812734;78;21357;-61
2021/01/03 10:39:29;;;;;;;8.40;3.12;;;;;;;5.72;100.00;101977.72;1823974;78;20920;-60
2021/01/03 10:41:58;;;;;;;9.43;2.85;;;;;;;5.69;100.00;101964.41;1830142;77;21486;-62
2021/01/03 10:44:25;;;;;;;8.65;2.70;;;;;;;5.70;100.00;101958.63;1830337;78;20979;-60
2021/01/03 10:46:55;;;;;;;7.58;2.83;;;;;;;5.73;100.00;101948.89;1830264;78;21164;-61
2021/01/03 10:49:23;;;;;;;10.38;3.50;;;;;;;5.82;100.00;101948.47;1830285;78;21416;-61
2021/01/03 10:51:50;;;;;;;7.20;3.37;;;;;;;5.83;100.00;101956.48;1830230;78;20948;-61
2021/01/03 10:54:25;;;;;;;5.80;3.30;;;;;;;5.84;100.00;101951.59;1830357;78;20908;-61
2021/01/03 10:56:56;;;;;;;7.62;3.90;;;;;;;5.82;100.00;101944.48;1828955;77;20995;-61
2021/01/03 10:59:24;;;;;;;8.30;3.58;;;;;;;5.82;100.00;101959.12;1830303;78;21094;-61
2021/01/03 11:01:53;;;;;;;9.28;3.20;;;;;;;5.81;100.00;101950.69;1830252;78;21399;-61
2021/01/03 11:04:22;;;;;;;9.48;3.52;;;;;;;5.82;100.00;101949.80;1830312;78;20935;-60
2021/01/03 11:06:52;;;;;;;11.68;3.60;;;;;;;5.79;100.00;101945.80;1830205;78;21042;-61
2021/01/03 11:09:25;;;;;;;9.73;4.47;;;;;;;5.86;100.00;101942.30;1830380;78;20924;-61
2021/01/03 11:11:58;;;;;;;6.78;3.58;;;;;;;5.86;100.00;101942.30;1830411;78;21123;-61
2021/01/03 11:14:26;;;;;;;11.38;4.30;;;;;;;5.85;100.00;101943.16;1830241;78;21190;-59
2021/01/03 11:16:54;;;;;;;10.63;4.20;;;;;;;5.82;100.00;101945.81;1830236;78;21114;-61
2021/01/03 11:19:22;;;;;;;13.08;4.30;;;;;;;5.82;100.00;101938.73;1830204;77;21073;-61
2021/01/03 11:21:55;;;;;;;11.75;4.35;;;;;;;5.85;100.00;101932.08;1830253;78;21063;-60
2021/01/03 11:24:23;;;;;;;9.98;4.72;;;;;;;5.88;100.00;101931.22;1830274;78;21110;-60
2021/01/03 11:26:51;;;;;;;16.73;6.12;;;;;;;5.88;100.00;101940.53;1830348;78;21185;-61
2021/01/03 11:29:23;;;;;;;18.05;10.13;;;;;;;5.85;100.00;101939.16;1830133;78;20947;-61
2021/01/03 11:31:53;;;;;;;14.80;4.72;;;;;;;5.83;100.00;101944.92;1830494;78;21468;-61
2021/01/03 11:34:29;;;;;;;9.48;5.65;;;;;;;5.82;100.00;101943.14;1830232;78;20999;-60
2021/01/03 11:37:04;;;;;;;10.40;4.80;;;;;;;5.80;100.00;101939.59;1830108;77;21459;-61
2021/01/03 11:39:32;;;;;;;33.50;12.85;;;;;;;5.81;100.00;101920.98;1830315;78;21187;-61
2021/01/03 11:42:03;;;;;;;14.13;6.25;;;;;;;5.83;100.00;101921.87;1825050;77;21440;-62
2021/01/03 11:44:32;;;;;;;8.58;4.20;;;;;;;5.77;100.00;101932.93;1824243;78;21016;-60
2021/01/03 11:47:04;;;;;;;10.50;4.45;;;;;;;5.76;100.00;101929.83;1824130;78;20912;-61
2021/01/03 11:49:36;;;;;;;9.20;4.25;;;;;;;5.76;100.00;101929.83;1824311;78;21130;-60
2021/01/03 11:52:04;;;;;;;18.05;9.45;;;;;;;5.76;100.00;101933.81;1823728;77;21370;-61
2021/01/03 11:54:33;;;;;;;9.48;5.67;;;;;;;5.74;100.00;101942.69;1823994;78;21185;-60